Makawao, HI

6:20 AM HST on August 29, 2014 (GMT -1000)
Up Country Maui | Change Station
CLOSE
Current Station
Personal Weather Station
Location: Makawao, HI
Elevation: 1562 ft
Nearby Weather Stations
Active Advisory: High Surf Advisory

Elev 1562 ft 20.86 °N, 156.32 °W | Updated 12 seconds ago

Partly Cloudy
Partly Cloudy
66.2 °F
Feels Like 66.2 °F
N
2.0
Wind Variable Wind from ENE
Gusts 7.0 mph

Today
High -- | Low -- °F
--% Chance of Precip.
Yesterday
High -- | Low -- °F
Precip. -- in
6:08 AM 6:43 PM
Waxing Crescent, 15% visible
Pressure 29.93 in
Visibility 10.0 miles
Clouds Few 5000 ft
Dew Point 62 °F
Humidity 87%
Rainfall 0.00 in
Snow Depth Not available.
UV 0.0 out of 12
Pollen Not available.
Air Quality Not available.
Flu Activity Not available.
METAR PHOG 291554Z 00000KT 10SM FEW050 21/18 A2991 RMK AO2 SLP135 T02060178

More Conditions Fewer Conditions

Pressure 29.93 in
Visibility 10.0 miles
Clouds Few 5000 ft
Dew Point 62 °F
Humidity 87%
Rainfall 0.00 in
Snow Depth Not available.
UV 0.0 out of 12
Pollen Not available.
Air Quality Not available.
Flu Activity Not available.
METAR PHOG 291554Z 00000KT 10SM FEW050 21/18 A2991 RMK AO2 SLP135 T02060178

More Conditions Fewer Conditions

10-Day Weather Forecast

Almanac

Astronomy

Aug. 29, 2014 Rise Set
Actual Time 6:08 AM HST 6:43 PM HST
Civil Twilight 5:45 AM HST 7:06 PM HST
Nautical Twilight 5:19 AM HST 7:32 PM HST
Astronomical Twilight 4:52 AM HST 7:59 PM HST
Moon 9:33 AM HST 9:25 PM HST
Length of Visible Light 13h 20m
Length of Day
12h 35m
Tomorrow will be 1m 8s shorter.
Waxing Crescent, 15% of the Moon is Illuminated
Today
Waxing Crescent
Sep 2
First Quarter
Sep 8
Full
Sep 15
Last Quarter
Sep 24
New

Today's Extremes

State Highs State Lows

Community

WunderPhotos

Upload Photos

1,748,281 photos uploaded!

Nearby

Snow Depth

Station Depth Elevation
No new snow has been reported.

Earthquake Activity

City Distance Mag. Time & Date
No recent earthquake activity has been reported nearby.
Minimum magnitude displayed is 2.5.

Coastal Water Temperatures

Place Temperature
No Stations Reporting

Nearby Weather Stations